Time;durP1;ratioP1;P1;durP2;ratioP2;P2;SDS_P1;SDS_P2;PMS_P1;PMS_P2;Temp;Humidity;BMP_temperature;BMP_pressure;BME280_temperature;BME280_humidity;BME280_pressure;Samples;Min_cycle;Max_cycle;Signal;HPM_P1;HPM_P2
2023/12/04 00:01:09;;;;;;;42.50;22.77;;;-5.40;99.90;;;;;;5027465;28;20112;-61
2023/12/04 00:03:35;;;;;;;45.60;23.25;;;-5.40;99.90;;;;;;5028794;28;20016;-61
2023/12/04 00:06:00;;;;;;;39.92;21.45;;;-5.30;99.90;;;;;;5027588;28;20370;-60
2023/12/04 00:08:26;;;;;;;46.50;22.60;;;-5.30;99.90;;;;;;5026446;28;20049;-61
2023/12/04 00:10:52;;;;;;;42.28;21.73;;;-5.30;99.90;;;;;;5028058;28;20030;-61
2023/12/04 00:13:17;;;;;;;41.78;22.67;;;-5.30;99.90;;;;;;5027296;28;20041;-60
2023/12/04 00:15:44;;;;;;;46.40;23.23;;;-5.30;99.90;;;;;;5026970;28;20026;-61
2023/12/04 00:18:09;;;;;;;44.60;23.50;;;-5.30;99.90;;;;;;5027762;28;20096;-61
2023/12/04 00:20:36;;;;;;;44.17;22.45;;;-5.40;99.90;;;;;;5028106;28;20112;-62
2023/12/04 00:23:02;;;;;;;42.60;22.35;;;-5.40;99.90;;;;;;5027431;28;20045;-62
2023/12/04 00:25:28;;;;;;;45.08;23.60;;;-5.40;99.90;;;;;;5028130;28;20025;-61
2023/12/04 00:27:53;;;;;;;40.10;22.42;;;-5.50;99.90;;;;;;5025888;28;20107;-61
2023/12/04 00:30:19;;;;;;;40.45;20.17;;;-5.50;99.90;;;;;;5027756;28;20059;-61
2023/12/04 00:32:44;;;;;;;45.97;23.77;;;-5.50;99.90;;;;;;5027443;28;20033;-61
2023/12/04 00:35:10;;;;;;;44.80;23.08;;;-5.50;99.90;;;;;;5025545;28;20037;-60
2023/12/04 00:37:38;;;;;;;43.47;22.08;;;-5.50;99.90;;;;;;5028028;28;20057;-61
2023/12/04 00:40:05;;;;;;;44.60;23.75;;;-5.50;99.90;;;;;;5027166;28;20034;-61
2023/12/04 00:42:31;;;;;;;42.70;21.90;;;-5.50;99.90;;;;;;5021070;28;20440;-61
2023/12/04 00:44:56;;;;;;;42.15;21.75;;;-5.50;99.90;;;;;;5027983;28;20124;-61
2023/12/04 00:47:22;;;;;;;42.83;21.45;;;-5.40;99.90;;;;;;5026993;28;20052;-61
2023/12/04 00:49:48;;;;;;;38.72;20.90;;;-5.40;99.90;;;;;;5023631;28;20033;-61
2023/12/04 00:52:13;;;;;;;41.70;21.70;;;-5.40;99.90;;;;;;5024976;28;20113;-60
2023/12/04 00:54:40;;;;;;;39.05;20.17;;;-5.40;99.90;;;;;;5026545;28;20034;-61
2023/12/04 00:57:06;;;;;;;40.70;20.33;;;-5.30;99.90;;;;;;5026678;28;20511;-60
2023/12/04 00:59:32;;;;;;;49.38;23.27;;;-5.30;99.90;;;;;;5026901;28;20030;-60
2023/12/04 01:01:57;;;;;;;39.60;20.67;;;-5.30;99.90;;;;;;5026987;28;20099;-61
2023/12/04 01:04:23;;;;;;;42.97;22.75;;;-5.40;99.90;;;;;;5024192;28;20080;-62
2023/12/04 01:06:48;;;;;;;45.45;22.65;;;-5.40;99.90;;;;;;5027122;28;20025;-61
2023/12/04 01:09:14;;;;;;;37.28;20.88;;;-5.40;99.90;;;;;;5027124;28;20036;-61
2023/12/04 01:11:40;;;;;;;43.10;21.55;;;-5.40;99.90;;;;;;5026678;28;20124;-61
2023/12/04 01:14:05;;;;;;;41.65;22.23;;;-5.40;99.90;;;;;;5026216;28;20032;-60
2023/12/04 01:16:31;;;;;;;36.42;20.98;;;-5.40;99.90;;;;;;5025698;28;20025;-61
2023/12/04 01:18:56;;;;;;;41.97;21.48;;;-5.40;99.90;;;;;;5026248;28;20030;-61
2023/12/04 01:21:22;;;;;;;44.25;22.52;;;-5.40;99.90;;;;;;5026038;28;20026;-61
2023/12/04 01:23:48;;;;;;;39.05;20.63;;;-5.40;99.90;;;;;;5025875;28;20136;-61
2023/12/04 01:26:13;;;;;;;45.90;22.77;;;-5.40;99.90;;;;;;5025373;28;20033;-61
2023/12/04 01:28:39;;;;;;;44.58;20.50;;;-5.40;99.90;;;;;;5023949;28;20452;-61
2023/12/04 01:31:05;;;;;;;38.53;20.98;;;-5.30;99.90;;;;;;5025984;28;20056;-60
2023/12/04 01:33:31;;;;;;;40.70;22.05;;;-5.30;99.90;;;;;;5026415;28;20026;-62
2023/12/04 01:35:56;;;;;;;45.30;23.20;;;-5.20;99.90;;;;;;5025188;28;20034;-61
2023/12/04 01:38:22;;;;;;;46.42;23.00;;;-5.20;99.90;;;;;;5025569;28;20030;-60
2023/12/04 01:40:48;;;;;;;44.63;21.27;;;-5.10;99.90;;;;;;5025339;28;20043;-61
2023/12/04 01:43:14;;;;;;;36.15;20.98;;;-5.10;99.90;;;;;;5026307;28;20029;-60
2023/12/04 01:45:40;;;;;;;40.95;22.23;;;-5.00;99.90;;;;;;5025655;28;20075;-61
2023/12/04 01:48:07;;;;;;;36.67;20.45;;;-5.00;99.90;;;;;;5024600;28;20131;-61
2023/12/04 01:50:35;;;;;;;39.58;20.30;;;-4.90;99.90;;;;;;5023731;28;20037;-60
2023/12/04 01:53:01;;;;;;;36.88;19.88;;;-4.80;99.90;;;;;;5024756;28;20041;-62
2023/12/04 01:55:28;;;;;;;36.45;20.65;;;-4.80;99.90;;;;;;5023599;28;20041;-60
2023/12/04 01:57:55;;;;;;;39.35;20.15;;;-4.80;99.90;;;;;;5026704;28;20022;-61
2023/12/04 02:00:21;;;;;;;38.30;21.15;;;-4.80;99.90;;;;;;5024956;28;20029;-61
2023/12/04 02:02:47;;;;;;;39.45;20.65;;;-4.80;99.90;;;;;;5024583;28;20079;-60
2023/12/04 02:05:14;;;;;;;35.85;19.48;;;-4.80;99.90;;;;;;5024484;28;20128;-60
2023/12/04 02:07:41;;;;;;;33.38;19.65;;;-4.80;99.90;;;;;;5022213;28;20034;-61
2023/12/04 02:10:07;;;;;;;34.90;19.33;;;-4.80;99.90;;;;;;5023028;28;20029;-60
2023/12/04 02:12:33;;;;;;;33.20;20.08;;;-4.90;99.90;;;;;;5025994;28;20079;-60
2023/12/04 02:14:58;;;;;;;38.22;19.73;;;-4.90;99.90;;;;;;5025276;28;20033;-61
2023/12/04 02:17:26;;;;;;;33.40;18.70;;;-4.90;99.90;;;;;;5024797;28;20105;-61
2023/12/04 02:19:52;;;;;;;37.28;21.65;;;-4.90;99.90;;;;;;5024257;28;20507;-60
2023/12/04 02:22:18;;;;;;;35.97;20.27;;;-4.90;99.90;;;;;;5020201;28;20116;-61
2023/12/04 02:24:45;;;;;;;40.95;19.90;;;-4.90;99.90;;;;;;5023495;28;20018;-61
2023/12/04 02:27:38;;;;;;;31.33;18.95;;;-4.90;99.90;;;;;;5024172;28;20041;-61
2023/12/04 02:30:06;;;;;;;36.58;19.27;;;-4.90;99.90;;;;;;5023747;28;20037;-61
2023/12/04 02:32:36;;;;;;;32.72;19.95;;;-4.90;99.90;;;;;;5024981;28;20030;-61
2023/12/04 02:35:04;;;;;;;35.92;19.35;;;-4.90;99.90;;;;;;5024231;28;20409;-60
2023/12/04 02:37:31;;;;;;;37.78;20.70;;;-4.90;99.90;;;;;;5023843;28;20029;-60
2023/12/04 02:39:57;;;;;;;36.63;19.73;;;-5.00;99.90;;;;;;5025382;28;20409;-62
2023/12/04 02:42:24;;;;;;;37.13;19.90;;;-5.00;99.90;;;;;;5024640;28;20518;-61
2023/12/04 02:44:51;;;;;;;37.05;19.85;;;-5.00;99.90;;;;;;5023914;28;20494;-60
2023/12/04 02:47:17;;;;;;;38.38;20.30;;;-5.00;99.90;;;;;;5025456;28;20029;-60
2023/12/04 02:49:42;;;;;;;36.85;19.42;;;-5.00;99.90;;;;;;5025437;28;20041;-61
2023/12/04 02:52:08;;;;;;;33.25;19.17;;;-5.00;99.90;;;;;;5022963;28;20384;-61
2023/12/04 02:54:33;;;;;;;34.40;18.98;;;-5.00;99.90;;;;;;5024890;28;20096;-61
2023/12/04 02:56:59;;;;;;;34.58;20.10;;;-5.00;99.90;;;;;;5025535;28;20040;-60
2023/12/04 02:59:25;;;;;;;30.33;17.55;;;-5.10;99.90;;;;;;5024848;28;20485;-60
2023/12/04 03:01:50;;;;;;;33.65;19.38;;;-5.10;99.90;;;;;;5024695;28;20033;-60
2023/12/04 03:04:16;;;;;;;35.95;19.80;;;-5.10;99.90;;;;;;5023511;28;20305;-59
2023/12/04 03:06:41;;;;;;;34.60;18.17;;;-5.10;99.90;;;;;;5024646;28;20033;-61
2023/12/04 03:09:07;;;;;;;32.35;19.25;;;-5.10;99.90;;;;;;5024059;28;20026;-61
2023/12/04 03:11:33;;;;;;;37.53;20.38;;;-5.10;99.90;;;;;;5023430;28;20114;-59
2023/12/04 03:14:01;;;;;;;34.65;19.35;;;-5.10;99.90;;;;;;5024476;28;20445;-61
2023/12/04 03:16:27;;;;;;;37.13;20.00;;;-5.00;99.90;;;;;;5024755;28;20026;-62
2023/12/04 03:18:52;;;;;;;37.22;20.48;;;-5.10;99.90;;;;;;5024794;28;20594;-60
2023/12/04 03:21:18;;;;;;;43.50;22.52;;;-5.10;99.90;;;;;;5023402;28;20026;-61
2023/12/04 03:23:43;;;;;;;34.28;18.40;;;-5.10;99.90;;;;;;5023871;28;20029;-60
2023/12/04 03:26:09;;;;;;;36.10;20.20;;;-5.10;99.90;;;;;;5024647;28;20355;-60
2023/12/04 03:28:35;;;;;;;35.28;19.15;;;-5.10;99.90;;;;;;5024342;28;20053;-61
2023/12/04 03:31:01;;;;;;;33.40;19.02;;;-5.10;99.90;;;;;;5025392;28;20033;-60
2023/12/04 03:33:27;;;;;;;34.10;19.88;;;-5.00;99.90;;;;;;5024181;28;20018;-60
2023/12/04 03:35:52;;;;;;;35.83;20.40;;;-4.90;99.90;;;;;;5024454;28;20029;-60
2023/12/04 03:38:18;;;;;;;33.33;18.42;;;-4.80;99.90;;;;;;5025193;28;20033;-60
2023/12/04 03:40:43;;;;;;;38.38;19.33;;;-4.80;99.90;;;;;;5024244;28;20057;-61
2023/12/04 03:43:09;;;;;;;35.22;20.08;;;-4.80;99.90;;;;;;5023911;28;20026;-61
2023/12/04 03:45:35;;;;;;;33.22;19.42;;;-4.70;99.90;;;;;;5025281;28;20067;-60
2023/12/04 03:48:00;;;;;;;34.75;18.52;;;-4.80;99.90;;;;;;5025084;28;20481;-61
2023/12/04 03:50:26;;;;;;;37.83;20.08;;;-4.80;99.90;;;;;;5024517;28;20030;-61
2023/12/04 03:52:51;;;;;;;34.50;18.30;;;-4.80;99.90;;;;;;5025240;28;20895;-60
2023/12/04 03:55:19;;;;;;;32.95;18.58;;;-4.80;99.90;;;;;;5024315;28;20033;-61
2023/12/04 03:57:45;;;;;;;32.65;18.90;;;-4.80;99.90;;;;;;5023823;28;20037;-60
2023/12/04 04:00:11;;;;;;;32.30;18.63;;;-4.80;99.90;;;;;;5025081;28;20025;-61
2023/12/04 04:02:39;;;;;;;35.10;19.50;;;-4.70;99.90;;;;;;5023670;28;20029;-59
2023/12/04 04:05:05;;;;;;;36.25;19.38;;;-4.70;99.90;;;;;;5026386;28;20040;-60
2023/12/04 04:07:31;;;;;;;34.28;18.77;;;-4.60;99.90;;;;;;5028544;28;20029;-60
2023/12/04 04:09:57;;;;;;;32.03;19.20;;;-4.70;99.90;;;;;;5028171;28;20029;-61
2023/12/04 04:12:23;;;;;;;33.60;18.15;;;-4.70;99.90;;;;;;5028111;28;20110;-60
2023/12/04 04:14:48;;;;;;;36.38;20.05;;;-4.70;99.90;;;;;;5028494;28;20605;-61
2023/12/04 04:17:14;;;;;;;35.42;19.48;;;-4.60;99.90;;;;;;5028249;28;20030;-61
2023/12/04 04:19:41;;;;;;;34.97;20.13;;;-4.60;99.90;;;;;;5026667;28;20025;-60
2023/12/04 04:22:06;;;;;;;32.65;19.60;;;-4.60;99.90;;;;;;5026417;28;20477;-61
2023/12/04 04:24:32;;;;;;;37.63;19.02;;;-4.50;99.90;;;;;;5025698;28;20040;-60
2023/12/04 04:26:58;;;;;;;33.67;18.55;;;-4.50;99.90;;;;;;5027208;28;20026;-61
2023/12/04 04:29:23;;;;;;;30.60;17.98;;;-4.50;99.90;;;;;;5027800;28;20030;-61
2023/12/04 04:31:49;;;;;;;38.60;20.73;;;-4.50;99.90;;;;;;5028510;28;20038;-60
2023/12/04 04:34:14;;;;;;;34.40;19.02;;;-4.50;99.90;;;;;;5027179;28;20026;-60
2023/12/04 04:36:40;;;;;;;38.63;20.75;;;-4.50;99.90;;;;;;5027696;28;20040;-61
2023/12/04 04:39:06;;;;;;;38.70;21.45;;;-4.50;99.90;;;;;;5025202;28;20115;-61
2023/12/04 04:41:32;;;;;;;36.95;21.25;;;-4.50;99.90;;;;;;5026392;28;20099;-60
2023/12/04 04:43:57;;;;;;;35.17;19.27;;;-4.50;99.90;;;;;;5027553;28;20489;-61
2023/12/04 04:46:25;;;;;;;31.15;19.02;;;-4.50;99.90;;;;;;5026398;28;20050;-61
2023/12/04 04:48:50;;;;;;;35.30;19.35;;;-4.50;99.90;;;;;;5027856;28;20180;-61
2023/12/04 04:51:16;;;;;;;35.05;19.58;;;-4.50;99.90;;;;;;5026600;28;20112;-60
2023/12/04 04:53:42;;;;;;;34.63;19.00;;;-4.50;99.90;;;;;;5026151;28;20029;-60
2023/12/04 04:56:08;;;;;;;33.60;19.27;;;-4.50;99.90;;;;;;5025598;28;20037;-60
2023/12/04 04:58:34;;;;;;;37.45;19.40;;;-4.50;99.90;;;;;;5026318;28;20107;-61
2023/12/04 05:00:59;;;;;;;36.10;19.88;;;-4.60;99.90;;;;;;5026052;28;20072;-61
2023/12/04 05:03:25;;;;;;;40.05;21.05;;;-4.60;99.90;;;;;;5026147;28;20055;-61
2023/12/04 05:05:51;;;;;;;35.97;20.45;;;-4.70;99.90;;;;;;5026197;28;20786;-61
2023/12/04 05:08:16;;;;;;;40.00;19.17;;;-4.70;99.90;;;;;;5025765;28;20555;-60
2023/12/04 05:10:42;;;;;;;35.28;20.40;;;-4.70;99.90;;;;;;5026976;28;20501;-61
2023/12/04 05:13:08;;;;;;;36.20;20.17;;;-4.70;99.90;;;;;;5024694;28;20068;-61
2023/12/04 05:15:33;;;;;;;33.17;18.48;;;-4.80;99.90;;;;;;5024879;28;20029;-61
2023/12/04 05:17:59;;;;;;;35.67;20.45;;;-4.80;99.90;;;;;;5027323;28;20037;-61
2023/12/04 05:20:24;;;;;;;39.58;21.00;;;-4.80;99.90;;;;;;5026965;28;20025;-60
2023/12/04 05:22:50;;;;;;;43.15;21.25;;;-4.90;99.90;;;;;;5025787;28;20040;-61
2023/12/04 05:25:16;;;;;;;33.13;18.58;;;-4.90;99.90;;;;;;5025552;28;20034;-61
2023/12/04 05:27:41;;;;;;;36.50;18.65;;;-4.90;99.90;;;;;;5027084;28;20037;-61
2023/12/04 05:30:07;;;;;;;34.60;18.80;;;-4.90;99.90;;;;;;5025448;28;20509;-60
2023/12/04 05:32:33;;;;;;;38.88;20.17;;;-5.00;99.90;;;;;;5026471;28;20171;-60
2023/12/04 05:34:59;;;;;;;35.60;20.00;;;-5.00;99.90;;;;;;5024101;28;20453;-60
2023/12/04 05:37:24;;;;;;;38.70;19.98;;;-5.00;99.90;;;;;;5026154;28;20026;-60
2023/12/04 05:39:50;;;;;;;39.95;19.48;;;-5.00;99.90;;;;;;5024635;28;20021;-61
2023/12/04 05:42:16;;;;;;;35.65;20.15;;;-5.10;99.90;;;;;;5026201;28;20369;-60
2023/12/04 05:44:41;;;;;;;33.88;19.15;;;-5.10;99.90;;;;;;5025959;28;20033;-61
2023/12/04 05:47:08;;;;;;;42.88;20.80;;;-5.10;99.90;;;;;;5025834;28;20025;-60
2023/12/04 05:49:34;;;;;;;42.08;20.75;;;-5.10;99.90;;;;;;5025257;28;20026;-63
2023/12/04 05:51:59;;;;;;;34.55;19.75;;;-5.10;99.90;;;;;;5025169;28;20032;-61
2023/12/04 05:54:25;;;;;;;37.08;20.67;;;-5.10;99.90;;;;;;5026037;28;20117;-61
2023/12/04 05:56:50;;;;;;;36.65;19.33;;;-5.10;99.90;;;;;;5026288;28;20048;-61
2023/12/04 05:59:16;;;;;;;36.88;20.70;;;-5.10;99.90;;;;;;5025764;28;20486;-61
2023/12/04 06:01:42;;;;;;;36.30;20.73;;;-5.00;99.90;;;;;;5024163;28;20026;-60
2023/12/04 06:04:07;;;;;;;37.55;21.02;;;-5.00;99.90;;;;;;5025115;28;20022;-60
2023/12/04 06:06:33;;;;;;;37.20;20.42;;;-5.00;99.90;;;;;;5025366;28;20420;-60
2023/12/04 06:08:58;;;;;;;37.65;19.23;;;-5.00;99.90;;;;;;5026241;28;20063;-60
2023/12/04 06:11:24;;;;;;;39.03;20.42;;;-5.00;99.90;;;;;;5023835;28;20034;-60
2023/12/04 06:13:50;;;;;;;38.22;19.92;;;-5.00;99.90;;;;;;5027505;28;20025;-61
2023/12/04 06:16:15;;;;;;;40.53;20.27;;;-5.00;99.90;;;;;;5025393;28;20033;-60
2023/12/04 06:18:41;;;;;;;34.65;20.30;;;-5.00;99.90;;;;;;5024342;28;20014;-61
2023/12/04 06:21:07;;;;;;;38.53;20.13;;;-5.00;99.90;;;;;;5025166;28;20481;-61
2023/12/04 06:23:33;;;;;;;34.22;18.75;;;-5.00;99.90;;;;;;5025167;28;20044;-59
2023/12/04 06:25:59;;;;;;;35.60;19.95;;;-5.00;99.90;;;;;;5023760;28;20425;-62
2023/12/04 06:28:24;;;;;;;35.33;20.10;;;-5.00;99.90;;;;;;5025419;28;20033;-61
2023/12/04 06:30:50;;;;;;;41.00;21.80;;;-5.00;99.90;;;;;;5024952;28;20045;-61
2023/12/04 06:33:18;;;;;;;40.05;20.52;;;-5.10;99.90;;;;;;5024345;28;20022;-62
2023/12/04 06:35:44;;;;;;;34.90;19.90;;;-5.00;99.90;;;;;;5023903;28;20513;-61
2023/12/04 06:38:14;;;;;;;33.72;19.65;;;-5.10;99.90;;;;;;5024675;28;20042;-61
2023/12/04 06:40:40;;;;;;;35.90;20.20;;;-5.00;99.90;;;;;;5020324;28;20509;-61
2023/12/04 06:43:07;;;;;;;38.58;21.05;;;-5.00;99.90;;;;;;5020518;28;20079;-61
2023/12/04 06:45:33;;;;;;;36.95;19.83;;;-5.00;99.90;;;;;;5019350;28;20021;-61
2023/12/04 06:48:00;;;;;;;37.10;19.45;;;-5.00;99.90;;;;;;5018841;28;20030;-63
2023/12/04 06:50:26;;;;;;;36.53;18.55;;;-4.90;99.90;;;;;;5020910;28;20095;-61
2023/12/04 06:52:52;;;;;;;32.67;18.00;;;-4.90;99.90;;;;;;5021169;28;20065;-60
2023/12/04 06:55:17;;;;;;;31.65;18.60;;;-4.90;99.90;;;;;;5020725;28;20577;-60
2023/12/04 06:57:43;;;;;;;34.47;18.90;;;-4.90;99.90;;;;;;5019403;28;20029;-60
2023/12/04 07:00:16;;;;;;;33.05;18.40;;;-4.90;99.90;;;;;;5021472;28;20032;-60
2023/12/04 07:02:42;;;;;;;32.25;18.45;;;-4.90;99.90;;;;;;5020249;28;20032;-61
2023/12/04 07:05:07;;;;;;;32.28;18.23;;;-4.80;99.90;;;;;;5019853;28;20030;-60
2023/12/04 07:07:33;;;;;;;31.88;17.50;;;-4.80;99.90;;;;;;5021590;28;20022;-61
2023/12/04 07:09:59;;;;;;;29.33;17.80;;;-4.80;99.90;;;;;;5020905;28;20067;-61
2023/12/04 07:12:24;;;;;;;34.72;18.80;;;-4.80;99.90;;;;;;5020806;28;20504;-61
2023/12/04 07:14:50;;;;;;;25.52;16.15;;;-4.80;99.90;;;;;;5020187;28;20029;-61
2023/12/04 07:17:16;;;;;;;25.65;16.63;;;-4.70;99.90;;;;;;5021644;28;20076;-61
2023/12/04 07:19:42;;;;;;;28.58;16.50;;;-4.70;99.90;;;;;;5020460;28;20108;-62
2023/12/04 07:22:07;;;;;;;27.27;15.57;;;-4.60;99.90;;;;;;5020114;28;20167;-61
2023/12/04 07:24:33;;;;;;;22.38;14.65;;;-4.60;99.90;;;;;;5022536;28;20014;-60
2023/12/04 07:26:59;;;;;;;22.30;15.50;;;-4.60;99.90;;;;;;5021547;28;20905;-61
2023/12/04 07:29:24;;;;;;;26.05;16.55;;;-4.50;99.90;;;;;;5022694;28;20034;-60
2023/12/04 07:31:50;;;;;;;23.85;15.25;;;-4.50;99.90;;;;;;5019275;28;20034;-62
2023/12/04 07:34:16;;;;;;;25.50;14.65;;;-4.40;99.90;;;;;;5018941;28;20486;-59
2023/12/04 07:36:44;;;;;;;21.13;14.75;;;-4.30;99.90;;;;;;5021933;28;20025;-61
2023/12/04 07:39:10;;;;;;;20.50;12.85;;;-4.30;99.90;;;;;;5025450;28;20045;-60
2023/12/04 07:41:36;;;;;;;20.48;14.05;;;-4.30;99.90;;;;;;5024522;28;20041;-60
2023/12/04 07:44:03;;;;;;;18.88;13.82;;;-4.30;99.90;;;;;;5027628;28;20026;-61
2023/12/04 07:46:29;;;;;;;21.00;14.25;;;-4.20;99.90;;;;;;5022860;28;20437;-61
2023/12/04 07:48:55;;;;;;;18.63;13.45;;;-4.20;99.90;;;;;;5024419;28;20655;-61
2023/12/04 07:51:20;;;;;;;20.65;13.88;;;-4.10;99.90;;;;;;5024948;28;20120;-61
2023/12/04 07:53:47;;;;;;;16.33;12.05;;;-4.10;99.90;;;;;;5025838;28;20084;-62
2023/12/04 07:56:13;;;;;;;16.45;12.15;;;-4.10;99.90;;;;;;5021329;28;20068;-60
2023/12/04 07:58:38;;;;;;;18.00;13.13;;;-4.10;99.90;;;;;;5026349;28;20053;-60
2023/12/04 08:01:05;;;;;;;17.13;12.23;;;-4.10;99.90;;;;;;5024816;28;20552;-61
2023/12/04 08:03:31;;;;;;;18.40;12.32;;;-4.10;99.90;;;;;;5025264;28;20025;-62
2023/12/04 08:05:58;;;;;;;15.07;11.77;;;-4.00;99.90;;;;;;5027386;28;20036;-62
2023/12/04 08:08:24;;;;;;;17.27;11.80;;;-3.90;99.90;;;;;;5028515;28;20030;-62
2023/12/04 08:10:49;;;;;;;15.55;11.85;;;-3.80;99.90;;;;;;5039554;28;20029;-61
2023/12/04 08:13:16;;;;;;;13.73;11.20;;;-3.70;99.90;;;;;;5026759;28;20026;-61
2023/12/04 08:15:41;;;;;;;15.18;10.93;;;-3.70;99.90;;;;;;5028147;28;20057;-62
2023/12/04 08:18:07;;;;;;;14.30;10.57;;;-3.60;99.90;;;;;;5026984;28;20076;-61
2023/12/04 08:20:33;;;;;;;13.27;10.13;;;-3.50;99.90;;;;;;5027442;28;20482;-60
2023/12/04 08:22:58;;;;;;;14.63;12.18;;;-3.40;99.90;;;;;;5028235;28;20084;-62
2023/12/04 08:25:24;;;;;;;15.50;10.82;;;-3.30;99.90;;;;;;5022448;28;20088;-63
2023/12/04 08:27:50;;;;;;;14.52;11.20;;;-3.20;99.90;;;;;;5026051;28;20028;-62
2023/12/04 08:30:16;;;;;;;12.77;10.43;;;-3.10;99.90;;;;;;5026299;28;20598;-60
2023/12/04 08:32:42;;;;;;;15.45;10.98;;;-3.10;99.90;;;;;;5025479;28;20043;-62
2023/12/04 08:35:08;;;;;;;14.95;10.45;;;-3.00;99.90;;;;;;5023791;28;20078;-62
2023/12/04 08:37:33;;;;;;;12.05;9.75;;;-3.00;99.90;;;;;;5026800;28;20044;-61
2023/12/04 08:39:59;;;;;;;12.50;9.50;;;-2.90;99.90;;;;;;5026467;28;20037;-61
2023/12/04 08:42:26;;;;;;;17.40;10.13;;;-2.80;99.90;;;;;;5024487;28;20041;-61
2023/12/04 08:44:51;;;;;;;13.73;10.40;;;-2.70;99.90;;;;;;5022228;28;20516;-62
2023/12/04 08:47:17;;;;;;;12.43;10.43;;;-2.50;99.90;;;;;;5024706;28;20029;-61
2023/12/04 08:49:43;;;;;;;12.27;10.07;;;-2.30;99.90;;;;;;5026531;28;20120;-61
2023/12/04 08:52:09;;;;;;;14.20;10.00;;;-2.10;99.90;;;;;;5026325;28;20029;-61
2023/12/04 08:54:38;;;;;;;14.32;9.80;;;-1.90;99.90;;;;;;5026227;28;20040;-62
2023/12/04 08:57:04;;;;;;;13.05;9.52;;;-1.70;99.90;;;;;;5024360;28;20033;-61
2023/12/04 08:59:29;;;;;;;13.68;10.27;;;-1.40;99.90;;;;;;5026915;28;20033;-61
2023/12/04 09:01:55;;;;;;;12.50;10.38;;;-1.30;99.90;;;;;;5026644;28;20076;-61
2023/12/04 09:04:21;;;;;;;12.60;9.00;;;-1.20;99.90;;;;;;5026465;28;20039;-62
2023/12/04 09:06:46;;;;;;;10.50;8.52;;;-1.10;99.90;;;;;;5027301;28;20097;-62
2023/12/04 09:09:13;;;;;;;11.35;8.77;;;-1.00;99.90;;;;;;5027326;28;20120;-61
2023/12/04 09:11:43;;;;;;;11.57;8.95;;;-0.80;99.90;;;;;;5025558;28;20758;-62
2023/12/04 09:14:09;;;;;;;10.43;8.60;;;-0.60;99.90;;;;;;5024865;28;20053;-62
2023/12/04 09:16:35;;;;;;;11.30;8.82;;;-0.30;99.90;;;;;;5026324;28;20052;-62
2023/12/04 09:19:00;;;;;;;9.23;8.20;;;0.10;99.90;;;;;;5025994;28;20481;-62
2023/12/04 09:21:26;;;;;;;11.32;8.15;;;0.40;99.90;;;;;;5025825;28;20477;-61
2023/12/04 09:23:52;;;;;;;10.05;8.13;;;0.60;99.90;;;;;;5027680;28;20029;-63
2023/12/04 09:26:18;;;;;;;8.88;7.93;;;0.70;99.90;;;;;;5026186;28;20501;-61
2023/12/04 09:28:44;;;;;;;8.68;7.88;;;0.80;99.90;;;;;;5027260;28;20036;-61
2023/12/04 09:31:10;;;;;;;8.60;7.70;;;0.80;99.90;;;;;;5026961;28;20661;-62
2023/12/04 09:33:38;;;;;;;8.85;8.00;;;0.90;99.90;;;;;;5026272;28;20022;-62
2023/12/04 09:36:04;;;;;;;8.40;7.55;;;0.90;99.90;;;;;;5025363;28;20083;-61
2023/12/04 09:38:29;;;;;;;9.13;6.80;;;0.70;99.90;;;;;;5025476;28;20534;-62
2023/12/04 09:40:59;;;;;;;8.75;7.55;;;0.70;99.90;;;;;;5025793;28;20025;-62
2023/12/04 09:43:26;;;;;;;8.65;6.90;;;0.60;99.90;;;;;;5022473;28;20049;-62
2023/12/04 09:45:52;;;;;;;7.53;6.38;;;0.50;99.90;;;;;;5023959;28;20479;-63
2023/12/04 09:48:18;;;;;;;8.48;7.25;;;0.40;99.90;;;;;;5018930;28;20033;-61
2023/12/04 09:50:46;;;;;;;8.30;6.93;;;0.40;99.90;;;;;;5020944;28;20120;-60
2023/12/04 09:53:13;;;;;;;8.25;7.13;;;0.40;99.90;;;;;;5017682;28;20115;-62
2023/12/04 09:55:40;;;;;;;9.73;7.53;;;0.30;99.90;;;;;;5021868;28;20037;-59
2023/12/04 09:58:05;;;;;;;8.60;7.53;;;0.30;99.90;;;;;;5022437;28;20056;-61
2023/12/04 10:00:32;;;;;;;10.38;7.28;;;0.40;99.90;;;;;;5004600;28;20490;-63
2023/12/04 10:02:59;;;;;;;8.38;6.97;;;0.50;99.90;;;;;;5023988;28;20065;-62
2023/12/04 10:05:25;;;;;;;8.00;6.50;;;0.60;99.90;;;;;;5023988;28;20030;-61
2023/12/04 10:07:51;;;;;;;7.82;6.18;;;0.70;99.90;;;;;;5025880;28;20087;-62
2023/12/04 10:10:18;;;;;;;11.32;6.80;;;0.70;99.90;;;;;;5025350;28;20144;-62
2023/12/04 10:12:43;;;;;;;9.55;6.68;;;0.60;99.90;;;;;;5024951;28;20092;-61
2023/12/04 10:15:12;;;;;;;8.27;7.22;;;0.30;99.90;;;;;;5025406;28;20025;-61
2023/12/04 10:17:43;;;;;;;8.25;6.97;;;0.20;99.90;;;;;;5026427;28;20100;-62
2023/12/04 10:20:17;;;;;;;8.77;6.65;;;0.10;99.90;;;;;;5024062;28;20034;-61
2023/12/04 10:22:59;;;;;;;7.40;6.53;;;0.20;99.90;;;;;;5024885;28;20097;-62
2023/12/04 10:25:28;;;;;;;10.55;7.70;;;0.30;99.90;;;;;;5024252;28;20095;-62
2023/12/04 10:28:03;;;;;;;12.30;9.88;;;0.40;99.90;;;;;;5024477;28;20492;-61
2023/12/04 10:30:31;;;;;;;9.00;7.78;;;0.50;99.90;;;;;;5024174;28;20040;-63
2023/12/04 10:33:07;;;;;;;6.82;5.75;;;0.60;99.90;;;;;;5020150;28;20581;-61
2023/12/04 10:35:38;;;;;;;9.73;7.82;;;0.50;99.90;;;;;;5020884;28;20117;-61
2023/12/04 10:38:07;;;;;;;9.88;7.80;;;0.60;99.90;;;;;;5021321;28;20025;-62
2023/12/04 10:40:35;;;;;;;10.05;6.53;;;0.80;99.90;;;;;;5021590;28;20495;-61
2023/12/04 10:43:21;;;;;;;9.50;7.50;;;0.90;99.90;;;;;;5020776;28;20045;-62
2023/12/04 10:45:48;;;;;;;6.85;5.60;;;1.10;99.90;;;;;;5020355;28;20030;-62
2023/12/04 10:48:16;;;;;;;7.80;6.45;;;1.10;99.90;;;;;;5020402;28;20017;-60
2023/12/04 10:50:49;;;;;;;7.68;6.72;;;1.10;99.90;;;;;;5019331;28;20037;-61
2023/12/04 10:53:16;;;;;;;8.10;6.50;;;1.10;99.90;;;;;;5020990;28;20041;-60
2023/12/04 10:55:43;;;;;;;9.43;6.68;;;1.00;99.90;;;;;;5022298;28;20121;-61
2023/12/04 10:58:14;;;;;;;9.10;6.20;;;0.90;99.90;;;;;;5021793;28;20040;-61
2023/12/04 11:00:43;;;;;;;;;;;0.90;99.90;;;;;;5024700;28;20029;-62
2023/12/04 11:03:13;;;;;;;9.57;6.35;;;0.90;99.90;;;;;;5022215;28;19920;-62
2023/12/04 11:05:40;;;;;;;7.32;6.35;;;0.90;99.90;;;;;;5023261;28;20029;-62
2023/12/04 11:08:09;;;;;;;8.00;6.32;;;0.90;99.90;;;;;;5024612;28;20036;-62
2023/12/04 11:10:44;;;;;;;8.10;6.85;;;1.00;99.90;;;;;;5023475;28;20029;-63
2023/12/04 11:13:28;;;;;;;9.02;7.30;;;0.90;99.90;;;;;;5026266;28;20120;-61
2023/12/04 11:16:00;;;;;;;6.93;5.85;;;1.00;99.90;;;;;;5025394;28;20108;-61
2023/12/04 11:18:27;;;;;;;8.50;6.85;;;1.00;99.90;;;;;;5029999;28;20061;-61
2023/12/04 11:21:07;;;;;;;7.45;6.22;;;1.00;99.90;;;;;;5029664;28;20041;-61
2023/12/04 11:23:34;;;;;;;8.18;6.03;;;1.10;99.90;;;;;;5028986;28;20026;-61
2023/12/04 11:26:02;;;;;;;7.13;5.85;;;1.50;99.90;;;;;;5027810;28;20029;-62
2023/12/04 11:28:29;;;;;;;7.65;6.00;;;1.70;99.90;;;;;;5030124;28;20036;-61
2023/12/04 11:30:55;;;;;;;6.88;5.93;;;1.80;99.90;;;;;;5030170;28;20025;-61
2023/12/04 11:33:21;;;;;;;6.75;5.55;;;1.90;99.90;;;;;;5030804;28;20572;-62
2023/12/04 11:35:46;;;;;;;6.32;5.28;;;1.90;99.90;;;;;;5028089;28;20032;-61
2023/12/04 11:38:16;;;;;;;14.20;5.57;;;1.90;99.90;;;;;;5030107;28;20025;-62
2023/12/04 11:40:42;;;;;;;7.18;5.38;;;1.80;99.90;;;;;;5029194;28;20030;-62
2023/12/04 11:43:25;;;;;;;6.10;4.70;;;1.60;99.90;;;;;;5030176;28;20025;-62
2023/12/04 11:45:50;;;;;;;7.30;4.95;;;1.30;99.90;;;;;;5029830;28;20066;-61
2023/12/04 11:48:16;;;;;;;7.15;5.18;;;1.20;99.90;;;;;;5028724;28;20040;-61
2023/12/04 11:50:45;;;;;;;6.53;5.43;;;1.00;99.90;;;;;;5029505;28;20401;-61
2023/12/04 11:53:13;;;;;;;7.05;5.47;;;0.60;99.90;;;;;;5028236;28;20118;-62
2023/12/04 11:55:43;;;;;;;8.70;6.80;;;0.40;99.90;;;;;;5026245;28;20048;-62
2023/12/04 11:58:10;;;;;;;8.40;6.22;;;0.20;99.90;;;;;;5028549;28;20383;-61
2023/12/04 12:00:37;;;;;;;7.32;5.95;;;0.20;99.90;;;;;;5029045;28;20025;-61
2023/12/04 12:03:06;;;;;;;8.57;6.40;;;0.20;99.90;;;;;;5029431;28;20404;-62
2023/12/04 12:05:35;;;;;;;13.30;6.68;;;0.20;99.90;;;;;;5028693;28;20396;-62
2023/12/04 12:08:05;;;;;;;7.80;5.72;;;0.20;99.90;;;;;;5027240;28;20429;-62
2023/12/04 12:10:31;;;;;;;8.50;6.60;;;0.10;99.90;;;;;;5026723;28;20057;-62
2023/12/04 12:12:57;;;;;;;7.85;6.65;;;0.00;99.90;;;;;;5028094;28;20121;-62
2023/12/04 12:15:23;;;;;;;7.60;6.28;;;-0.10;99.90;;;;;;5027389;28;20226;-63
2023/12/04 12:17:49;;;;;;;8.50;6.63;;;-0.20;99.90;;;;;;5028226;28;20443;-64
2023/12/04 12:20:15;;;;;;;12.68;6.85;;;-0.30;99.90;;;;;;5024542;28;20033;-61
2023/12/04 12:22:43;;;;;;;9.80;6.70;;;-0.20;99.90;;;;;;5026299;28;20521;-62
2023/12/04 12:25:10;;;;;;;19.20;7.55;;;-0.20;99.90;;;;;;5026765;28;20033;-61
2023/12/04 12:27:37;;;;;;;9.27;8.07;;;-0.20;99.90;;;;;;5028592;28;20025;-62
2023/12/04 12:30:04;;;;;;;10.52;7.35;;;-0.20;99.90;;;;;;5027404;28;20034;-62
2023/12/04 12:32:31;;;;;;;11.05;7.95;;;-0.30;99.90;;;;;;5028060;28;20032;-62